Terminal Aerodrome Forecast
Issued by NWS Austin/San Antonio, TX

Home | Current Version | Previous Version | Text Only | Print | Product List | Glossary On
Versions: 1 2 3 4 5 6 7 8 9 10 11 12 13 14 15 16
000
FTUS44 KEWX 271737
TAFSAT
TAF
KSAT 271737Z 2718/2824 17013KT P6SM BKN025
     FM271900 16014KT P6SM SCT035
     FM280500 15011KT P6SM BKN015
      TEMPO 2807/2811 5SM BR BKN008
     FM281700 16008KT P6SM BKN025 BKN040
     FM282100 10006KT P6SM BKN030 BKN050=

USA.gov is the U.S. government's official web portal to all federal, state and local government web resources and services.